createdAt,value
2018-09-03T00:02:09.969Z,78.97
2018-09-03T00:04:39.241Z,79.87
2018-09-03T00:07:07.425Z,74.50
2018-09-03T00:09:41.064Z,84.63
2018-09-03T00:12:09.916Z,77.13
2018-09-03T00:14:38.236Z,74.93
2018-09-03T00:17:07.097Z,66.77
2018-09-03T00:19:35.620Z,70.10
2018-09-03T00:22:03.753Z,65.43
2018-09-03T00:24:32.006Z,68.90
2018-09-03T00:27:00.109Z,72.20
2018-09-03T00:29:28.289Z,69.70
2018-09-03T00:32:01.916Z,70.13
2018-09-03T00:34:35.443Z,76.20
2018-09-03T00:37:09.113Z,69.03
2018-09-03T00:39:42.909Z,73.43
2018-09-03T00:42:16.669Z,74.00
2018-09-03T00:44:50.256Z,81.10
2018-09-03T00:47:18.424Z,73.63
2018-09-03T00:49:46.570Z,73.53
2018-09-03T00:52:14.729Z,62.77
2018-09-03T00:54:42.935Z,77.17
2018-09-03T00:57:11.049Z,85.93
2018-09-03T00:59:39.162Z,80.03
2018-09-03T01:02:07.325Z,77.67
2018-09-03T01:04:35.540Z,91.60
2018-09-03T01:07:03.787Z,86.77
2018-09-03T01:09:31.917Z,82.30
2018-09-03T01:12:00.040Z,74.30
2018-09-03T01:14:28.193Z,73.23
2018-09-03T01:16:56.332Z,82.57
2018-09-03T01:19:24.413Z,69.83
2018-09-03T01:21:52.529Z,67.37
2018-09-03T01:24:20.708Z,86.80
2018-09-03T01:26:48.860Z,75.93
2018-09-03T01:29:16.947Z,90.10
2018-09-03T01:31:45.167Z,77.90
2018-09-03T01:34:13.310Z,75.10
2018-09-03T01:36:41.484Z,88.00
2018-09-03T01:39:09.672Z,71.23
2018-09-03T01:41:37.791Z,74.97
2018-09-03T01:44:05.880Z,73.73
2018-09-03T01:46:33.939Z,78.00
2018-09-03T01:49:02.079Z,88.03
2018-09-03T01:51:30.175Z,71.43
2018-09-03T01:53:58.231Z,74.80
2018-09-03T01:56:26.332Z,69.23
2018-09-03T01:58:54.394Z,64.23
2018-09-03T02:01:22.597Z,67.57
2018-09-03T02:03:50.892Z,72.67
2018-09-03T02:06:19.421Z,79.50
2018-09-03T02:08:47.661Z,87.33
2018-09-03T02:11:16.002Z,82.03
2018-09-03T02:13:44.145Z,71.07
2018-09-03T02:16:12.261Z,76.17
2018-09-03T02:18:40.541Z,84.20
2018-09-03T02:21:09.012Z,89.83
2018-09-03T02:23:37.499Z,86.80
2018-09-03T02:26:05.725Z,82.13
2018-09-03T02:28:34.170Z,88.47
2018-09-03T02:31:02.431Z,71.20
2018-09-03T02:33:30.676Z,82.30
2018-09-03T02:35:58.820Z,76.77
2018-09-03T02:38:26.949Z,68.73
2018-09-03T02:40:54.984Z,88.23
2018-09-03T02:43:23.145Z,66.90
2018-09-03T02:45:51.281Z,72.90
2018-09-03T02:48:19.447Z,76.13
2018-09-03T02:50:47.636Z,76.27
2018-09-03T02:53:15.828Z,78.73
2018-09-03T02:55:43.988Z,79.73
2018-09-03T02:58:12.225Z,71.70
2018-09-03T03:00:40.324Z,80.07
2018-09-03T03:03:08.418Z,71.10
2018-09-03T03:05:36.534Z,76.07
2018-09-03T03:08:05.495Z,75.77
2018-09-03T03:10:33.720Z,74.13
2018-09-03T03:13:01.828Z,71.77
2018-09-03T03:15:29.920Z,79.23
2018-09-03T03:17:58.093Z,82.83
2018-09-03T03:20:26.180Z,84.20
2018-09-03T03:22:54.313Z,74.30
2018-09-03T03:25:22.447Z,75.17
2018-09-03T03:27:50.577Z,91.23
2018-09-03T03:30:18.812Z,82.70
2018-09-03T03:32:47.058Z,92.07
2018-09-03T03:35:15.261Z,82.47
2018-09-03T03:37:47.855Z,88.80
2018-09-03T03:40:16.846Z,107.23
2018-09-03T03:42:45.035Z,102.33
2018-09-03T03:45:13.205Z,92.40
2018-09-03T03:47:41.801Z,99.73
2018-09-03T03:50:10.417Z,80.20
2018-09-03T03:52:38.632Z,101.70
2018-09-03T03:55:07.419Z,91.50
2018-09-03T03:57:35.840Z,98.53
2018-09-03T04:00:03.950Z,92.27
2018-09-03T04:02:32.118Z,98.67
2018-09-03T04:05:00.311Z,95.43
2018-09-03T04:07:28.367Z,93.80
2018-09-03T04:09:56.783Z,92.23
2018-09-03T04:12:25.001Z,107.97
2018-09-03T04:14:53.185Z,98.03
2018-09-03T04:17:21.322Z,107.17
2018-09-03T04:19:53.948Z,97.20
2018-09-03T04:22:22.085Z,113.33
2018-09-03T04:24:50.330Z,99.10
2018-09-03T04:27:18.438Z,98.30
2018-09-03T04:29:46.560Z,109.57
2018-09-03T04:32:14.616Z,97.53
2018-09-03T04:34:42.789Z,92.37
2018-09-03T04:37:10.883Z,97.50
2018-09-03T04:39:38.974Z,121.60
2018-09-03T04:42:07.198Z,133.20
2018-09-03T04:44:35.338Z,99.17
2018-09-03T04:47:03.533Z,100.30
2018-09-03T04:49:31.738Z,105.63
2018-09-03T04:51:59.973Z,112.77
2018-09-03T04:54:28.244Z,119.93
2018-09-03T04:56:56.429Z,93.83
2018-09-03T04:59:24.492Z,102.50
2018-09-03T05:01:52.589Z,96.20
2018-09-03T05:04:20.814Z,107.73
2018-09-03T05:06:48.859Z,110.93
2018-09-03T05:09:16.918Z,103.93
2018-09-03T05:11:45.076Z,103.53
2018-09-03T05:14:13.119Z,89.53
2018-09-03T05:16:41.243Z,109.27
2018-09-03T05:19:09.290Z,110.90
2018-09-03T05:21:37.408Z,111.80
2018-09-03T05:24:05.618Z,135.07
2018-09-03T05:26:33.711Z,117.40
2018-09-03T05:29:01.793Z,294.60
2018-09-03T05:31:29.936Z,146.27
2018-09-03T05:33:58.075Z,98.90
2018-09-03T05:36:26.190Z,110.47
2018-09-03T05:38:54.281Z,112.20
2018-09-03T05:41:22.428Z,139.00
2018-09-03T05:43:50.591Z,118.47
2018-09-03T05:46:18.675Z,124.50
2018-09-03T05:48:46.801Z,143.47
2018-09-03T05:51:14.945Z,144.63
2018-09-03T05:53:43.046Z,135.77
2018-09-03T05:56:11.141Z,120.53
2018-09-03T05:58:39.204Z,125.70
2018-09-03T06:01:07.271Z,125.77
2018-09-03T06:03:35.352Z,128.80
2018-09-03T06:06:03.525Z,133.00
2018-09-03T06:08:31.738Z,127.17
2018-09-03T06:11:00.248Z,106.33
2018-09-03T06:13:28.384Z,158.80
2018-09-03T06:15:56.826Z,106.13
2018-09-03T06:18:25.120Z,133.80
2018-09-03T06:20:53.224Z,229.97
2018-09-03T06:23:21.389Z,118.03
2018-09-03T06:25:49.526Z,134.43
2018-09-03T06:28:17.583Z,112.93
2018-09-03T06:30:45.795Z,121.97
2018-09-03T06:33:13.886Z,117.47
2018-09-03T06:35:41.985Z,100.70
2018-09-03T06:38:10.113Z,110.13
2018-09-03T06:40:38.291Z,110.07
2018-09-03T06:43:06.364Z,95.10
2018-09-03T06:45:34.793Z,116.50
2018-09-03T06:48:02.934Z,109.37
2018-09-03T06:50:31.145Z,102.90
2018-09-03T06:52:59.290Z,99.60
2018-09-03T06:55:27.397Z,112.03
2018-09-03T06:57:55.544Z,81.17
2018-09-03T07:00:23.652Z,96.70
2018-09-03T07:02:51.773Z,94.23
2018-09-03T07:05:19.847Z,88.10
2018-09-03T07:07:48.011Z,76.17
2018-09-03T07:10:16.104Z,82.07
2018-09-03T07:12:44.236Z,86.03
2018-09-03T07:15:12.341Z,71.30
2018-09-03T07:17:40.992Z,82.43
2018-09-03T07:20:09.372Z,92.83
2018-09-03T07:22:37.446Z,76.70
2018-09-03T07:25:05.553Z,70.07
2018-09-03T07:27:33.685Z,75.70
2018-09-03T07:30:01.748Z,61.90
2018-09-03T07:32:29.832Z,71.87
2018-09-03T07:34:57.943Z,75.47
2018-09-03T07:37:26.038Z,73.23
2018-09-03T07:39:54.218Z,61.10
2018-09-03T07:42:22.365Z,66.73
2018-09-03T07:44:50.552Z,68.30
2018-09-03T07:47:18.607Z,61.37
2018-09-03T07:50:50.254Z,69.93
2018-09-03T07:53:18.324Z,72.70
2018-09-03T07:55:46.416Z,75.57
2018-09-03T07:58:14.556Z,69.47
2018-09-03T08:00:42.628Z,64.93
2018-09-03T08:03:10.813Z,80.10
2018-09-03T08:05:38.873Z,58.63
2018-09-03T08:08:07.254Z,65.17
2018-09-03T08:10:35.573Z,64.77
2018-09-03T08:13:03.687Z,57.30
2018-09-03T08:15:31.950Z,59.50
2018-09-03T08:18:00.082Z,55.83
2018-09-03T08:20:28.174Z,61.50
2018-09-03T08:22:56.287Z,53.60
2018-09-03T08:25:24.485Z,55.53
2018-09-03T08:27:52.535Z,59.67
2018-09-03T08:30:20.789Z,57.13
2018-09-03T08:32:48.880Z,51.67
2018-09-03T08:35:16.925Z,55.40
2018-09-03T08:37:45.061Z,62.23
2018-09-03T08:40:13.177Z,53.03
2018-09-03T08:42:41.294Z,54.20
2018-09-03T08:45:09.372Z,46.53
2018-09-03T08:47:37.440Z,62.47
2018-09-03T08:50:05.484Z,57.40
2018-09-03T08:52:33.571Z,55.33
2018-09-03T08:55:02.467Z,58.90
2018-09-03T08:57:30.499Z,58.73
2018-09-03T08:59:58.605Z,52.77
2018-09-03T09:02:26.718Z,47.93
2018-09-03T09:04:54.796Z,50.03
2018-09-03T09:07:23.052Z,45.97
2018-09-03T09:09:51.164Z,112.83
2018-09-03T09:12:19.245Z,65.30
2018-09-03T09:14:47.355Z,55.80
2018-09-03T09:17:15.448Z,46.43
2018-09-03T09:19:43.579Z,44.33
2018-09-03T09:22:11.647Z,46.57
2018-09-03T09:24:39.805Z,47.77
2018-09-03T09:27:07.866Z,44.77
2018-09-03T09:29:36.000Z,46.10
2018-09-03T09:32:04.109Z,45.43
2018-09-03T09:34:32.163Z,43.37
2018-09-03T09:37:00.232Z,38.17
2018-09-03T09:39:28.358Z,37.77
2018-09-03T09:41:56.519Z,38.07
2018-09-03T09:44:24.601Z,36.70
2018-09-03T09:46:52.672Z,38.73
2018-09-03T09:49:20.988Z,43.63
2018-09-03T09:51:49.124Z,35.17
2018-09-03T09:54:18.250Z,36.43
2018-09-03T09:56:46.356Z,37.27
2018-09-03T09:59:14.460Z,38.07
2018-09-03T10:01:42.613Z,39.47
2018-09-03T10:04:10.694Z,36.03
2018-09-03T10:06:38.812Z,36.37
2018-09-03T10:09:07.749Z,43.03
2018-09-03T10:11:35.835Z,37.47
2018-09-03T10:14:03.982Z,36.40
2018-09-03T10:16:32.066Z,35.70
2018-09-03T10:19:00.208Z,36.73
2018-09-03T10:21:28.320Z,37.43
2018-09-03T10:23:56.401Z,44.90
2018-09-03T10:26:24.496Z,35.83
2018-09-03T10:28:52.638Z,33.27
2018-09-03T10:31:20.790Z,35.80
2018-09-03T10:33:48.958Z,40.70
2018-09-03T10:36:17.092Z,35.57
2018-09-03T10:38:45.205Z,37.53
2018-09-03T10:41:13.328Z,40.30
2018-09-03T10:43:41.448Z,35.77
2018-09-03T10:50:57.662Z,41.40
2018-09-03T10:53:25.708Z,41.73
2018-09-03T10:55:53.859Z,44.13
2018-09-03T10:58:22.032Z,41.97
2018-09-03T11:00:50.078Z,40.20
2018-09-03T11:03:18.142Z,43.43
2018-09-03T11:05:46.248Z,43.77
2018-09-03T11:08:14.326Z,39.87
2018-09-03T11:10:42.377Z,39.00
2018-09-03T11:13:10.519Z,48.57
2018-09-03T11:15:38.487Z,38.73
2018-09-03T11:18:06.594Z,43.07
2018-09-03T11:20:34.723Z,39.50
2018-09-03T11:23:02.840Z,44.50
2018-09-03T11:25:31.980Z,45.37
2018-09-03T11:28:00.458Z,37.70
2018-09-03T11:30:28.893Z,41.80
2018-09-03T11:32:59.182Z,40.40
2018-09-03T11:35:27.279Z,34.60
2018-09-03T11:37:55.442Z,38.57
2018-09-03T11:40:24.231Z,40.20
2018-09-03T11:42:52.296Z,39.00
2018-09-03T11:45:21.521Z,40.00
2018-09-03T11:47:49.780Z,37.40
2018-09-03T11:50:18.639Z,35.43
2018-09-03T11:52:46.757Z,40.83
2018-09-03T11:55:15.758Z,38.73
2018-09-03T11:57:44.011Z,41.50
2018-09-03T12:00:15.656Z,39.27
2018-09-03T12:02:43.793Z,46.17
2018-09-03T12:05:11.931Z,39.20
2018-09-03T12:07:39.970Z,39.17
2018-09-03T12:10:08.123Z,38.50
2018-09-03T12:12:37.052Z,40.73
2018-09-03T12:15:11.777Z,41.23
2018-09-03T12:17:39.851Z,38.60
2018-09-03T12:20:07.937Z,33.87
2018-09-03T12:22:36.103Z,40.87
2018-09-03T12:25:04.256Z,42.30
2018-09-03T12:27:32.718Z,34.83
2018-09-03T12:31:04.554Z,35.03
2018-09-03T12:33:33.552Z,39.90
2018-09-03T12:36:01.847Z,41.00
2018-09-03T12:38:30.083Z,41.20
2018-09-03T12:40:58.331Z,34.27
2018-09-03T12:43:26.728Z,36.67
2018-09-03T12:46:01.250Z,34.80
2018-09-03T12:48:30.225Z,37.80
2018-09-03T12:50:59.078Z,41.00
2018-09-03T12:53:27.267Z,39.40
2018-09-03T12:55:55.622Z,37.67
2018-09-03T12:58:23.737Z,41.47
2018-09-03T13:00:51.967Z,36.30
2018-09-03T13:03:19.984Z,34.30
2018-09-03T13:05:48.125Z,38.10
2018-09-03T13:08:16.263Z,40.17
2018-09-03T13:10:44.414Z,32.67
2018-09-03T13:13:12.559Z,34.50
2018-09-03T13:15:40.684Z,36.80
2018-09-03T13:18:08.805Z,41.47
2018-09-03T13:20:36.900Z,39.97
2018-09-03T13:23:05.093Z,35.77
2018-09-03T13:25:33.380Z,38.60
2018-09-03T13:28:01.436Z,35.27
2018-09-03T13:30:29.528Z,34.43
2018-09-03T13:32:57.639Z,35.23
2018-09-03T13:35:26.027Z,42.37
2018-09-03T13:37:54.087Z,107.57
2018-09-03T13:40:22.169Z,39.50
2018-09-03T13:42:50.284Z,43.63
2018-09-03T13:45:18.433Z,41.17
2018-09-03T13:47:46.586Z,36.23
2018-09-03T13:50:14.771Z,45.07
2018-09-03T13:52:42.984Z,37.47
2018-09-03T13:55:11.270Z,36.63
2018-09-03T13:57:39.256Z,38.50
2018-09-03T14:00:08.658Z,35.70
2018-09-03T14:02:36.749Z,38.23
2018-09-03T14:05:04.797Z,42.73
2018-09-03T14:07:32.982Z,36.40
2018-09-03T14:10:01.148Z,34.13
2018-09-03T14:12:29.311Z,38.70
2018-09-03T14:14:57.450Z,37.20
2018-09-03T14:17:26.868Z,38.63
2018-09-03T14:19:55.050Z,34.47
2018-09-03T14:22:23.224Z,35.37
2018-09-03T14:24:51.318Z,36.00
2018-09-03T14:27:19.555Z,38.27
2018-09-03T14:29:47.689Z,36.30
2018-09-03T14:32:15.994Z,38.73
2018-09-03T14:34:44.505Z,35.60
2018-09-03T14:37:12.774Z,35.03
2018-09-03T14:39:40.972Z,36.70
2018-09-03T14:42:09.121Z,36.10
2018-09-03T14:44:37.405Z,35.53
2018-09-03T14:47:05.685Z,38.00
2018-09-03T14:49:33.862Z,36.17
2018-09-03T14:52:02.243Z,39.37
2018-09-03T14:54:30.417Z,33.00
2018-09-03T14:56:58.537Z,35.23
2018-09-03T14:59:26.720Z,35.03
2018-09-03T15:01:54.897Z,36.50
2018-09-03T15:04:23.119Z,34.10
2018-09-03T15:06:51.288Z,35.17
2018-09-03T15:09:19.476Z,42.63
2018-09-03T15:11:47.847Z,34.67
2018-09-03T15:14:16.543Z,34.37
2018-09-03T15:16:44.806Z,40.00
2018-09-03T15:19:13.047Z,34.00
2018-09-03T15:21:41.153Z,33.67
2018-09-03T15:24:09.300Z,34.47
2018-09-03T15:26:37.481Z,31.90
2018-09-03T15:29:05.581Z,34.30
2018-09-03T15:31:33.863Z,34.77
2018-09-03T15:34:02.246Z,35.00
2018-09-03T15:36:30.525Z,33.53
2018-09-03T15:38:58.846Z,34.77
2018-09-03T15:41:27.089Z,35.73
2018-09-03T15:43:55.234Z,33.10
2018-09-03T15:46:23.507Z,35.87
2018-09-03T15:48:51.844Z,34.33
2018-09-03T15:51:20.067Z,32.43
2018-09-03T15:53:48.920Z,35.60
2018-09-03T15:56:17.089Z,34.87
2018-09-03T15:58:45.518Z,32.43
2018-09-03T16:01:13.721Z,36.60
2018-09-03T16:03:42.048Z,37.27
2018-09-03T16:06:10.099Z,34.97
2018-09-03T16:08:38.297Z,38.60
2018-09-03T16:11:06.592Z,34.43
2018-09-03T16:13:34.784Z,34.50
2018-09-03T16:16:02.976Z,33.33
2018-09-03T16:18:31.216Z,31.90
2018-09-03T16:20:59.525Z,33.30
2018-09-03T16:23:27.648Z,32.83
2018-09-03T16:25:55.893Z,35.90
2018-09-03T16:28:24.126Z,33.00
2018-09-03T16:30:52.582Z,32.83
2018-09-03T16:33:20.705Z,33.53
2018-09-03T16:35:49.003Z,34.20
2018-09-03T16:38:17.331Z,33.50
2018-09-03T16:40:45.597Z,37.83
2018-09-03T16:43:14.190Z,33.20
2018-09-03T16:45:43.248Z,32.47
2018-09-03T16:48:11.770Z,47.97
2018-09-03T16:50:40.034Z,37.40
2018-09-03T16:53:08.460Z,33.93
2018-09-03T16:55:36.780Z,33.17
2018-09-03T16:58:04.985Z,34.50
2018-09-03T17:00:33.176Z,33.90
2018-09-03T17:03:01.493Z,34.77
2018-09-03T17:05:29.601Z,37.70
2018-09-03T17:07:57.813Z,36.00
2018-09-03T17:10:26.045Z,65.30
2018-09-03T17:12:54.316Z,35.13
2018-09-03T17:15:22.502Z,35.37
2018-09-03T17:17:50.723Z,39.57
2018-09-03T17:20:19.885Z,35.03
2018-09-03T17:22:48.183Z,35.20
2018-09-03T17:25:17.365Z,36.40
2018-09-03T17:27:45.614Z,31.80
2018-09-03T17:30:13.943Z,40.67
2018-09-03T17:32:42.041Z,37.73
2018-09-03T17:35:10.252Z,34.70
2018-09-03T17:37:38.342Z,36.50
2018-09-03T17:40:06.642Z,32.87
2018-09-03T17:42:34.787Z,41.43
2018-09-03T17:45:02.951Z,33.00
2018-09-03T17:47:31.013Z,34.40
2018-09-03T17:49:59.119Z,33.20
2018-09-03T17:52:27.284Z,38.37
2018-09-03T17:54:55.447Z,33.03
2018-09-03T17:57:23.532Z,34.53
2018-09-03T17:59:51.664Z,34.60
2018-09-03T18:02:19.871Z,40.30
2018-09-03T18:04:47.965Z,42.00
2018-09-03T18:07:16.065Z,32.47
2018-09-03T18:09:44.160Z,36.63
2018-09-03T18:12:12.264Z,37.63
2018-09-03T18:14:40.392Z,41.70
2018-09-03T18:17:08.723Z,64.13
2018-09-03T18:19:36.878Z,46.63
2018-09-03T18:22:04.981Z,45.30
2018-09-03T18:24:33.179Z,35.37
2018-09-03T18:27:01.366Z,37.40
2018-09-03T18:29:29.568Z,36.20
2018-09-03T18:31:57.674Z,34.70
2018-09-03T18:34:25.877Z,36.10
2018-09-03T18:36:54.090Z,36.47
2018-09-03T18:39:22.326Z,39.10
2018-09-03T18:41:50.497Z,35.53
2018-09-03T18:44:18.641Z,51.13
2018-09-03T18:46:46.812Z,34.03
2018-09-03T18:49:15.002Z,34.77
2018-09-03T18:51:43.315Z,37.90
2018-09-03T18:54:11.509Z,34.80
2018-09-03T18:56:39.729Z,34.50
2018-09-03T18:59:07.999Z,40.27
2018-09-03T19:01:36.273Z,34.97
2018-09-03T19:04:04.616Z,33.53
2018-09-03T19:06:32.814Z,32.40
2018-09-03T19:09:01.102Z,35.23
2018-09-03T19:11:29.368Z,48.53
2018-09-03T19:13:57.631Z,41.93
2018-09-03T19:16:25.861Z,40.70
2018-09-03T19:18:54.268Z,33.17
2018-09-03T19:21:22.441Z,38.33
2018-09-03T19:23:50.713Z,38.30
2018-09-03T19:26:19.058Z,37.33
2018-09-03T19:28:47.193Z,43.20
2018-09-03T19:31:15.293Z,51.57
2018-09-03T19:33:43.465Z,38.07
2018-09-03T19:36:11.653Z,36.00
2018-09-03T19:38:39.890Z,32.07
2018-09-03T19:41:08.113Z,35.77
2018-09-03T19:43:36.242Z,32.47
2018-09-03T19:46:04.311Z,34.40
2018-09-03T19:48:32.478Z,36.27
2018-09-03T19:51:00.627Z,32.87
2018-09-03T19:53:28.820Z,36.43
2018-09-03T19:55:57.020Z,33.30
2018-09-03T19:58:25.589Z,38.13
2018-09-03T20:00:53.769Z,36.50
2018-09-03T20:03:21.881Z,38.87
2018-09-03T20:05:50.056Z,44.13
2018-09-03T20:08:18.289Z,55.47
2018-09-03T20:10:46.367Z,54.47
2018-09-03T20:13:14.550Z,39.40
2018-09-03T20:15:42.837Z,36.47
2018-09-03T20:18:11.124Z,33.47
2018-09-03T20:20:39.313Z,32.53
2018-09-03T20:23:07.923Z,36.13
2018-09-03T20:25:36.133Z,35.83
2018-09-03T20:28:04.477Z,34.57
2018-09-03T20:30:32.672Z,33.63
2018-09-03T20:33:00.869Z,31.73
2018-09-03T20:35:29.049Z,31.80
2018-09-03T20:37:57.256Z,37.67
2018-09-03T20:40:25.468Z,40.80
2018-09-03T20:42:53.567Z,32.90
2018-09-03T20:45:21.652Z,33.63
2018-09-03T20:47:49.937Z,34.20
2018-09-03T20:50:18.084Z,34.83
2018-09-03T20:52:46.275Z,35.97
2018-09-03T20:55:14.451Z,42.03
2018-09-03T20:57:43.301Z,39.13
2018-09-03T21:00:11.444Z,33.27
2018-09-03T21:02:39.547Z,37.30
2018-09-03T21:05:07.943Z,41.90
2018-09-03T21:07:36.049Z,40.97
2018-09-03T21:10:04.308Z,41.90
2018-09-03T21:12:32.999Z,39.90
2018-09-03T21:15:01.233Z,35.33
2018-09-03T21:17:29.594Z,42.30
2018-09-03T21:19:57.754Z,36.23
2018-09-03T21:22:25.892Z,34.93
2018-09-03T21:24:54.192Z,40.13
2018-09-03T21:27:22.392Z,39.87
2018-09-03T21:29:50.679Z,34.23
2018-09-03T21:32:18.875Z,33.93
2018-09-03T21:34:47.012Z,35.17
2018-09-03T21:37:15.196Z,30.83
2018-09-03T21:39:43.639Z,37.60
2018-09-03T21:42:11.801Z,45.83
2018-09-03T21:45:43.459Z,33.60
2018-09-03T21:48:11.701Z,42.70
2018-09-03T21:50:39.828Z,31.30
2018-09-03T21:53:07.997Z,34.40
2018-09-03T21:55:36.270Z,35.00
2018-09-03T21:58:04.469Z,36.77
2018-09-03T22:00:32.707Z,39.40
2018-09-03T22:03:00.810Z,39.97
2018-09-03T22:05:28.868Z,33.33
2018-09-03T22:07:56.928Z,34.47
2018-09-03T22:10:24.995Z,28.20
2018-09-03T22:12:53.061Z,31.83
2018-09-03T22:15:21.200Z,40.63
2018-09-03T22:17:49.314Z,34.93
2018-09-03T22:20:17.409Z,38.87
2018-09-03T22:22:45.435Z,36.20
2018-09-03T22:25:13.500Z,37.40
2018-09-03T22:27:41.620Z,33.97
2018-09-03T22:30:09.676Z,33.73
2018-09-03T22:32:37.740Z,31.53
2018-09-03T22:35:05.867Z,34.40
2018-09-03T22:37:33.957Z,35.67
2018-09-03T22:40:02.070Z,37.07
2018-09-03T22:42:30.244Z,32.47
2018-09-03T22:44:59.060Z,36.17
2018-09-03T22:47:27.151Z,37.50
2018-09-03T22:49:55.348Z,31.63
2018-09-03T22:52:23.484Z,34.40
2018-09-03T22:54:52.678Z,36.13
2018-09-03T22:57:20.749Z,31.27
2018-09-03T22:59:48.797Z,34.50
2018-09-03T23:02:16.868Z,31.97
2018-09-03T23:04:44.957Z,37.97
2018-09-03T23:07:13.004Z,35.47
2018-09-03T23:09:41.081Z,34.53
2018-09-03T23:12:09.189Z,34.77
2018-09-03T23:14:37.294Z,30.37
2018-09-03T23:17:05.364Z,37.47
2018-09-03T23:19:33.445Z,29.60
2018-09-03T23:22:01.557Z,34.07
2018-09-03T23:24:29.640Z,31.67
2018-09-03T23:26:57.770Z,42.67
2018-09-03T23:29:25.868Z,33.23
2018-09-03T23:31:53.928Z,32.57
2018-09-03T23:34:21.996Z,37.73
2018-09-03T23:36:50.064Z,39.87
2018-09-03T23:39:18.208Z,32.17
2018-09-03T23:41:46.323Z,38.80
2018-09-03T23:44:14.461Z,34.30
2018-09-03T23:46:42.933Z,36.10
2018-09-03T23:49:11.075Z,41.73
2018-09-03T23:51:39.228Z,34.37
2018-09-03T23:54:07.305Z,37.83
2018-09-03T23:56:35.347Z,31.07
2018-09-03T23:59:03.490Z,37.57
